Time;durP1;ratioP1;P1;durP2;ratioP2;P2;SDS_P1;SDS_P2;PMS_P1;PMS_P2;Temp;Humidity;BMP_temperature;BMP_pressure;BME280_temperature;BME280_humidity;BME280_pressure;Samples;Min_cycle;Max_cycle;Signal;HPM_P1;HPM_P2
2022/02/26 00:00:07;;;;;;;;;;;5.30;99.20;5.80;100880.00;;;;339103;28;83454;-86
2022/02/26 00:00:19;;;;;;;;;;;5.30;99.30;5.80;100884.00;;;;338343;28;94543;-86
2022/02/26 00:00:31;;;;;;;;;;;5.30;99.30;5.80;100877.00;;;;339081;28;83583;-85
2022/02/26 00:00:43;;;;;;;;;;;5.30;99.30;5.90;100876.00;;;;337059;28;97106;-86
2022/02/26 00:00:55;;;;;;;;;;;5.30;99.30;5.80;100877.00;;;;339134;28;83705;-86
2022/02/26 00:01:06;;;;;;;;;;;5.30;99.30;5.80;100871.00;;;;336357;28;96898;-86
2022/02/26 00:01:19;;;;;;;;;;;5.30;99.20;5.80;100883.00;;;;340041;28;83138;-86
2022/02/26 00:01:31;;;;;;;;;;;5.20;99.20;5.90;100880.00;;;;339805;28;94370;-86
2022/02/26 00:01:43;;;;;;;;;;;5.30;99.50;5.90;100883.00;;;;340617;28;82231;-86
2022/02/26 00:01:55;;;;;;;;;;;5.30;99.30;6.00;100878.00;;;;339147;28;92018;-86
2022/02/26 00:02:07;;;;;;;;;;;5.30;99.40;6.00;100882.00;;;;340243;28;83593;-86
2022/02/26 00:02:21;;;;;;;;;;;5.30;99.30;5.90;100878.00;;;;337000;28;97221;-86
2022/02/26 00:02:33;;;;;;;;;;;5.30;99.30;5.90;100884.00;;;;341827;28;83439;-86
2022/02/26 00:02:45;;;;;;;;;;;5.30;99.20;5.90;100885.00;;;;339660;28;97025;-86
2022/02/26 00:02:57;;;;;;;;;;;5.30;99.20;5.90;100881.00;;;;339119;28;83483;-86
2022/02/26 00:03:10;;;;;;;;;;;5.30;99.30;5.80;100886.00;;;;341006;28;97442;-86
2022/02/26 00:03:21;;;;;;;;;;;5.30;99.30;5.90;100880.00;;;;337834;28;82510;-86
2022/02/26 00:03:33;;;;;;;;;;;5.30;99.30;5.80;100878.00;;;;337014;28;97316;-86
2022/02/26 00:03:45;;;;;;;;;;;5.30;99.30;5.80;100884.00;;;;337904;28;83406;-86
2022/02/26 00:03:57;;;;;;;;;;;5.30;99.30;5.80;100876.00;;;;336516;28;96856;-86
2022/02/26 00:04:09;;;;;;;;;;;5.30;99.30;5.90;100890.00;;;;337709;28;83776;-86
2022/02/26 00:04:20;;;;;;;;;;;5.30;99.30;5.90;100878.00;;;;336974;28;94212;-85
2022/02/26 00:04:32;;;;;;;;;;;5.30;99.30;5.90;100880.00;;;;339172;28;83460;-86
2022/02/26 00:04:45;;;;;;;;;;;5.30;99.30;5.80;100887.00;;;;335838;28;94727;-86
2022/02/26 00:04:57;;;;;;;;;;;5.30;99.30;5.80;100881.00;;;;337437;28;83490;-86
2022/02/26 00:05:09;;;;;;;;;;;5.30;99.40;5.80;100883.00;;;;337001;28;96418;-86
2022/02/26 00:05:21;;;;;;;;;;;5.30;99.40;5.80;100880.00;;;;336397;28;82569;-86
2022/02/26 00:05:32;;;;;;;;;;;5.30;99.40;5.70;100887.00;;;;335830;28;94260;-86
2022/02/26 00:05:45;;;;;;;;;;;5.20;99.50;5.70;100888.00;;;;339144;28;83479;-86
2022/02/26 00:05:57;;;;;;;;;;;5.20;99.50;5.80;100881.00;;;;339805;28;93581;-86
2022/02/26 00:06:08;;;;;;;;;;;5.20;99.50;5.80;100878.00;;;;339085;28;83476;-86
2022/02/26 00:06:20;;;;;;;;;;;5.20;99.50;5.80;100874.00;;;;337060;28;94354;-86
2022/02/26 00:06:32;;;;;;;;;;;5.20;99.50;5.80;100882.00;;;;337950;28;83323;-86
2022/02/26 00:06:44;;;;;;;;;;;5.20;99.50;5.80;100875.00;;;;334432;29;93743;-86
2022/02/26 00:06:55;;;;;;;;;;;5.30;99.50;5.80;100884.00;;;;335637;28;82656;-86
2022/02/26 00:07:08;;;;;;;;;;;5.20;99.40;5.80;100891.00;;;;335573;28;94724;-86
2022/02/26 00:07:20;;;;;;;;;;;5.20;99.40;5.80;100879.00;;;;337283;28;82399;-86
2022/02/26 00:07:32;;;;;;;;;;;5.20;99.40;5.80;100884.00;;;;335747;28;94723;-87
2022/02/26 00:07:44;;;;;;;;;;;5.30;99.50;5.80;100887.00;;;;335310;29;82433;-86
2022/02/26 00:07:55;;;;;;;;;;;5.20;99.50;5.80;100883.00;;;;337051;28;93774;-86
2022/02/26 00:08:07;;;;;;;;;;;5.30;99.50;5.80;100887.00;;;;336517;28;83347;-86
2022/02/26 00:08:21;;;;;;;;;;;5.20;99.40;5.80;100889.00;;;;337115;28;93856;-86
2022/02/26 00:08:32;;;;;;;;;;;5.30;99.50;5.80;100881.00;;;;337619;28;82562;-86
2022/02/26 00:08:44;;;;;;;;;;;5.20;99.50;5.80;100888.00;;;;334406;29;96518;-86
2022/02/26 00:08:56;;;;;;;;;;;5.30;99.50;5.80;100888.00;;;;336636;28;82424;-86
2022/02/26 00:09:08;;;;;;;;;;;5.30;99.50;5.80;100894.00;;;;335846;28;93271;-86
2022/02/26 00:09:21;;;;;;;;;;;5.20;99.50;5.70;100892.00;;;;337726;28;83500;-86
2022/02/26 00:09:33;;;;;;;;;;;5.20;99.90;5.80;100890.00;;;;337140;28;94712;-86
2022/02/26 00:09:44;;;;;;;;;;;5.20;99.60;5.70;100895.00;;;;339452;28;83423;-86
2022/02/26 00:09:56;;;;;;;;;;;5.20;99.70;5.80;100888.00;;;;335628;28;96410;-86
2022/02/26 00:10:08;;;;;;;;;;;5.20;99.60;5.80;100894.00;;;;338311;28;82452;-86
2022/02/26 00:10:21;;;;;;;;;;;5.20;99.80;5.80;100886.00;;;;333956;29;97331;-86
2022/02/26 00:10:33;;;;;;;;;;;5.20;99.70;5.70;100890.00;;;;334070;29;83550;-86
2022/02/26 00:10:45;;;;;;;;;;;5.20;99.70;5.80;100888.00;;;;335976;28;94291;-86
2022/02/26 00:10:57;;;;;;;;;;;5.20;99.60;5.80;100895.00;;;;336666;28;83523;-86
2022/02/26 00:11:08;;;;;;;;;;;5.20;99.60;5.80;100883.00;;;;337336;28;93913;-86
2022/02/26 00:11:21;;;;;;;;;;;5.20;99.60;5.80;100882.00;;;;337931;28;83937;-86
2022/02/26 00:11:33;;;;;;;;;;;5.20;99.70;5.80;100894.00;;;;335999;28;94335;-86
2022/02/26 00:11:45;;;;;;;;;;;5.20;99.60;5.80;100887.00;;;;338125;28;83371;-86
2022/02/26 00:11:56;;;;;;;;;;;5.20;99.60;5.80;100890.00;;;;337285;28;96667;-86
2022/02/26 00:12:08;;;;;;;;;;;5.20;99.60;5.80;100884.00;;;;339447;28;83368;-86
2022/02/26 00:12:22;;;;;;;;;;;5.20;99.60;5.80;100894.00;;;;335915;28;94202;-86
2022/02/26 00:12:34;;;;;;;;;;;5.20;99.60;5.70;100898.00;;;;335265;29;83474;-86
2022/02/26 00:12:45;;;;;;;;;;;5.20;99.70;5.70;100889.00;;;;337256;28;96611;-86
2022/02/26 00:12:57;;;;;;;;;;;5.20;99.70;5.70;100892.00;;;;336638;28;83512;-86
2022/02/26 00:13:09;;;;;;;;;;;5.20;99.70;5.60;100886.00;;;;338470;28;97084;-87
2022/02/26 00:13:22;;;;;;;;;;;5.20;99.70;5.80;100895.00;;;;337864;28;82576;-86
2022/02/26 00:13:34;;;;;;;;;;;5.20;99.70;5.70;100891.00;;;;337283;28;96875;-86
2022/02/26 00:13:46;;;;;;;;;;;5.20;99.80;5.70;100896.00;;;;336826;28;82319;-85
2022/02/26 00:13:58;;;;;;;;;;;5.20;99.80;5.70;100894.00;;;;337196;28;95607;-86
2022/02/26 00:14:15;;;;;;;;;;;5.20;99.80;5.80;100893.00;;;;338005;28;83497;-86
2022/02/26 00:14:27;;;;;;;;;;;5.20;99.80;5.80;100888.00;;;;335719;28;96973;-86
2022/02/26 00:14:39;;;;;;;;;;;5.20;99.80;5.80;100888.00;;;;335333;29;82456;-87
2022/02/26 00:14:51;;;;;;;;;;;5.20;99.80;5.70;100894.00;;;;337268;28;94619;-86
2022/02/26 00:15:03;;;;;;;;;;;5.20;99.80;5.70;100898.00;;;;338172;28;83483;-86
2022/02/26 00:15:15;;;;;;;;;;;5.20;99.80;5.70;100897.00;;;;337265;28;95973;-86
2022/02/26 00:15:27;;;;;;;;;;;5.20;99.80;5.80;100894.00;;;;339375;28;83506;-86
2022/02/26 00:15:39;;;;;;;;;;;5.20;99.80;5.70;100893.00;;;;337357;28;94156;-86
2022/02/26 00:15:50;;;;;;;;;;;5.20;99.90;5.70;100896.00;;;;339084;28;83411;-86
2022/02/26 00:16:02;;;;;;;;;;;5.20;99.90;5.70;100896.00;;;;336106;28;93723;-86
2022/02/26 00:16:14;;;;;;;;;;;5.20;99.90;5.70;100894.00;;;;338088;28;83438;-86
2022/02/26 00:16:26;;;;;;;;;;;5.20;99.80;5.80;100889.00;;;;337248;28;94394;-86
2022/02/26 00:16:38;;;;;;;;;;;5.20;99.80;5.80;100889.00;;;;336766;28;83412;-86
2022/02/26 00:16:50;;;;;;;;;;;5.20;99.90;5.80;100885.00;;;;338372;28;94849;-86
2022/02/26 00:17:02;;;;;;;;;;;5.20;99.80;5.70;100887.00;;;;336701;28;83573;-86
2022/02/26 00:17:14;;;;;;;;;;;5.20;99.80;5.80;100891.00;;;;334650;29;96675;-86
2022/02/26 00:17:25;;;;;;;;;;;5.20;99.80;5.80;100883.00;;;;336633;28;83383;-86
2022/02/26 00:17:37;;;;;;;;;;;5.20;99.80;5.80;100887.00;;;;336001;28;95379;-86
2022/02/26 00:17:49;;;;;;;;;;;5.20;99.80;5.80;100888.00;;;;335474;29;83399;-86
2022/02/26 00:18:01;;;;;;;;;;;5.20;99.90;5.80;100889.00;;;;337265;28;95986;-86
2022/02/26 00:18:13;;;;;;;;;;;5.20;99.80;5.80;100890.00;;;;338018;28;83397;-86
2022/02/26 00:18:24;;;;;;;;;;;5.20;99.80;5.80;100886.00;;;;334397;29;95573;-86
2022/02/26 00:18:36;;;;;;;;;;;5.20;99.80;5.80;100892.00;;;;336487;28;83444;-87
2022/02/26 00:18:48;;;;;;;;;;;5.20;99.90;5.70;100894.00;;;;335763;28;93777;-86
2022/02/26 00:19:00;;;;;;;;;;;5.20;99.90;5.60;100890.00;;;;334993;29;82497;-86
2022/02/26 00:19:12;;;;;;;;;;;5.20;99.90;5.70;100891.00;;;;334676;29;94313;-86
2022/02/26 00:19:24;;;;;;;;;;;5.20;99.90;5.80;100884.00;;;;338770;28;82734;-86
2022/02/26 00:19:35;;;;;;;;;;;5.20;99.90;5.80;100884.00;;;;337181;28;97333;-86
2022/02/26 00:19:48;;;;;;;;;;;5.20;99.90;5.80;100879.00;;;;336799;28;83336;-86
2022/02/26 00:20:00;;;;;;;;;;;5.20;99.90;5.80;100889.00;;;;337267;28;96296;-86
2022/02/26 00:20:16;;;;;;;;;;;5.20;99.90;5.70;100884.00;;;;336657;28;83229;-86
2022/02/26 00:20:28;;;;;;;;;;;5.20;99.80;5.70;100888.00;;;;338547;28;97462;-84
2022/02/26 00:20:40;;;;;;;;;;;5.20;99.80;5.70;100883.00;;;;336794;28;83401;-85
2022/02/26 00:20:52;;;;;;;;;;;5.20;99.90;5.70;100888.00;;;;337076;28;93057;-86
2022/02/26 00:21:04;;;;;;;;;;;5.20;99.80;5.70;100873.00;;;;336610;28;83485;-86
2022/02/26 00:21:16;;;;;;;;;;;5.20;99.90;5.70;100888.00;;;;337253;28;93125;-86
2022/02/26 00:21:27;;;;;;;;;;;5.20;99.90;5.60;100885.00;;;;337983;28;83442;-86
2022/02/26 00:21:39;;;;;;;;;;;5.20;99.90;5.60;100894.00;;;;337263;28;97200;-86
2022/02/26 00:21:51;;;;;;;;;;;5.20;99.90;5.60;100889.00;;;;337966;28;82870;-86
2022/02/26 00:22:03;;;;;;;;;;;5.20;99.90;5.50;100876.00;;;;336218;28;93515;-86
2022/02/26 00:22:15;;;;;;;;;;;5.20;99.90;5.50;100885.00;;;;337956;28;83489;-86
2022/02/26 00:22:27;;;;;;;;;;;5.10;99.90;5.70;100886.00;;;;336005;28;93739;-86
2022/02/26 00:22:39;;;;;;;;;;;5.10;99.90;5.60;100887.00;;;;336772;28;83287;-86
2022/02/26 00:22:50;;;;;;;;;;;5.10;99.90;5.70;100886.00;;;;335929;28;97451;-86
2022/02/26 00:23:02;;;;;;;;;;;5.10;99.90;5.60;100882.00;;;;338049;28;83372;-86
2022/02/26 00:23:14;;;;;;;;;;;5.10;99.90;5.70;100892.00;;;;337200;28;97453;-86
2022/02/26 00:23:26;;;;;;;;;;;5.10;99.90;5.70;100892.00;;;;338072;28;83370;-86
2022/02/26 00:23:38;;;;;;;;;;;5.10;99.90;5.60;100891.00;;;;337186;28;97173;-86
2022/02/26 00:23:50;;;;;;;;;;;5.10;99.90;5.50;100885.00;;;;338155;28;83310;-86
2022/02/26 00:24:02;;;;;;;;;;;5.10;99.90;5.60;100883.00;;;;338685;28;94976;-87
2022/02/26 00:24:13;;;;;;;;;;;5.10;99.90;5.60;100890.00;;;;338019;28;83481;-86
2022/02/26 00:24:25;;;;;;;;;;;5.10;99.90;5.60;100883.00;;;;334589;29;96939;-86
2022/02/26 00:24:38;;;;;;;;;;;5.10;99.90;5.70;100895.00;;;;336808;28;83443;-86
2022/02/26 00:24:49;;;;;;;;;;;5.10;99.90;5.70;100892.00;;;;334258;29;94799;-86
2022/02/26 00:25:01;;;;;;;;;;;5.10;99.90;5.70;100895.00;;;;337823;28;83537;-86
2022/02/26 00:25:14;;;;;;;;;;;5.10;99.90;5.70;100883.00;;;;337246;28;97531;-86
2022/02/26 00:25:26;;;;;;;;;;;5.10;99.90;5.70;100883.00;;;;337816;28;83584;-87
2022/02/26 00:25:38;;;;;;;;;;;5.10;99.90;5.60;100881.00;;;;334642;29;97771;-86
2022/02/26 00:25:49;;;;;;;;;;;5.10;99.90;5.60;100889.00;;;;338018;28;83232;-87
2022/02/26 00:26:02;;;;;;;;;;;5.10;99.90;5.60;100885.00;;;;337303;28;96724;-86
2022/02/26 00:26:20;;;;;;;;;;;5.10;99.90;5.60;100888.00;;;;339251;28;82457;-86
2022/02/26 00:26:32;;;;;;;;;;;5.10;99.90;5.60;100877.00;;;;335993;28;96536;-86
2022/02/26 00:26:44;;;;;;;;;;;5.10;99.90;5.60;100883.00;;;;336612;28;83544;-86
2022/02/26 00:26:56;;;;;;;;;;;5.10;99.90;5.70;100886.00;;;;337221;28;97071;-86
2022/02/26 00:27:08;;;;;;;;;;;5.10;99.90;5.60;100888.00;;;;339486;28;82394;-86
2022/02/26 00:27:20;;;;;;;;;;;5.10;99.90;5.70;100890.00;;;;335993;28;95222;-86
2022/02/26 00:27:32;;;;;;;;;;;5.10;99.90;5.60;100898.00;;;;335505;29;82581;-86
2022/02/26 00:27:44;;;;;;;;;;;5.10;99.90;5.60;100892.00;;;;336028;28;93765;-86
2022/02/26 00:27:55;;;;;;;;;;;5.10;99.90;5.70;100892.00;;;;337593;28;83559;-86
2022/02/26 00:28:07;;;;;;;;;;;5.10;99.90;5.70;100893.00;;;;335155;28;92523;-85
2022/02/26 00:28:20;;;;;;;;;;;5.10;99.90;5.60;100886.00;;;;337932;28;83520;-86
2022/02/26 00:28:33;;;;;;;;;;;5.10;99.90;5.60;100888.00;;;;334441;29;94159;-85
2022/02/26 00:28:44;;;;;;;;;;;5.10;99.90;5.60;100886.00;;;;335402;29;82599;-86
2022/02/26 00:28:56;;;;;;;;;;;5.10;99.90;5.70;100895.00;;;;336891;28;95260;-86
2022/02/26 00:29:08;;;;;;;;;;;5.10;99.90;5.60;100892.00;;;;338171;28;83419;-86
2022/02/26 00:29:20;;;;;;;;;;;5.10;99.90;5.70;100893.00;;;;337346;28;92950;-86
2022/02/26 00:29:34;;;;;;;;;;;5.10;99.90;5.70;100892.00;;;;338043;28;82548;-86
2022/02/26 00:29:46;;;;;;;;;;;5.10;99.90;5.70;100896.00;;;;338602;28;97448;-86
2022/02/26 00:29:58;;;;;;;;;;;5.10;99.90;5.60;100892.00;;;;338089;28;83268;-86
2022/02/26 00:30:11;;;;;;;;;;;5.10;99.90;5.70;100889.00;;;;338670;28;95900;-85
2022/02/26 00:30:22;;;;;;;;;;;5.10;99.90;5.70;100898.00;;;;338119;28;82598;-86
2022/02/26 00:30:34;;;;;;;;;;;5.10;99.90;5.70;100891.00;;;;334782;29;94569;-86
2022/02/26 00:30:46;;;;;;;;;;;5.10;99.90;5.70;100896.00;;;;336478;28;83262;-86
2022/02/26 00:30:58;;;;;;;;;;;5.10;99.90;5.60;100899.00;;;;336198;28;96298;-86
2022/02/26 00:31:10;;;;;;;;;;;5.10;99.90;5.60;100898.00;;;;339224;28;83553;-87
2022/02/26 00:31:22;;;;;;;;;;;5.10;99.90;5.60;100896.00;;;;335866;28;94571;-86
2022/02/26 00:31:34;;;;;;;;;;;5.10;99.90;5.70;100895.00;;;;336734;28;83508;-86
2022/02/26 00:31:46;;;;;;;;;;;5.10;99.90;5.70;100895.00;;;;337470;28;93439;-86
2022/02/26 00:31:58;;;;;;;;;;;5.10;99.90;5.70;100900.00;;;;338037;28;83587;-86
2022/02/26 00:32:15;;;;;;;;;;;5.10;99.90;5.80;100894.00;;;;335991;28;93841;-86
2022/02/26 00:32:27;;;;;;;;;;;5.10;99.90;5.70;100899.00;;;;339497;28;82414;-86
2022/02/26 00:32:39;;;;;;;;;;;5.10;99.90;5.80;100895.00;;;;337188;28;97951;-86
2022/02/26 00:32:50;;;;;;;;;;;5.10;99.90;5.80;100891.00;;;;339408;28;83443;-87
2022/02/26 00:33:02;;;;;;;;;;;5.10;99.90;5.80;100899.00;;;;336015;28;96664;-86
2022/02/26 00:33:14;;;;;;;;;;;5.20;99.90;5.70;100890.00;;;;335353;29;83459;-86
2022/02/26 00:33:28;;;;;;;;;;;5.20;99.90;5.70;100893.00;;;;335936;28;96656;-86
2022/02/26 00:33:40;;;;;;;;;;;5.20;99.90;5.70;100890.00;;;;338110;28;83403;-86
2022/02/26 00:33:51;;;;;;;;;;;5.20;99.90;5.60;100887.00;;;;335830;28;97300;-86
2022/02/26 00:34:03;;;;;;;;;;;5.10;99.90;5.60;100893.00;;;;335177;29;83398;-86
2022/02/26 00:34:15;;;;;;;;;;;5.10;99.90;5.70;100899.00;;;;333395;29;97179;-86
2022/02/26 00:34:38;;;;;;;;;;;5.10;99.90;5.70;100899.00;;;;335514;29;82434;-86
2022/02/26 00:34:50;;;;;;;;;;;5.10;99.90;5.70;100897.00;;;;337141;28;94154;-86
2022/02/26 00:35:02;;;;;;;;;;;5.10;99.90;5.70;100900.00;;;;339523;28;83280;-86
2022/02/26 00:35:14;;;;;;;;;;;5.10;99.90;5.70;100896.00;;;;337355;28;94405;-86
2022/02/26 00:35:26;;;;;;;;;;;5.10;99.90;5.70;100900.00;;;;339375;28;83487;-86
2022/02/26 00:35:39;;;;;;;;;;;5.10;99.90;5.70;100891.00;;;;335910;28;94971;-86
2022/02/26 00:35:52;;;;;;;;;;;5.10;99.90;5.70;100898.00;;;;337995;28;83397;-85
2022/02/26 00:36:05;;;;;;;;;;;5.10;99.90;5.60;100889.00;;;;337111;28;95780;-86
2022/02/26 00:36:17;;;;;;;;;;;5.10;99.90;5.60;100901.00;;;;338029;28;82474;-86
2022/02/26 00:36:28;;;;;;;;;;;5.10;99.90;5.60;100899.00;;;;337043;28;96621;-86
2022/02/26 00:36:40;;;;;;;;;;;5.10;99.90;5.70;100898.00;;;;341867;28;83426;-86
2022/02/26 00:36:52;;;;;;;;;;;5.10;99.90;5.70;100895.00;;;;337861;28;96217;-86
2022/02/26 00:37:04;;;;;;;;;;;5.10;99.90;5.80;100903.00;;;;337963;28;83374;-86
2022/02/26 00:37:16;;;;;;;;;;;5.10;99.90;5.80;100892.00;;;;339996;28;93805;-86
2022/02/26 00:37:28;;;;;;;;;;;5.10;99.90;5.80;100897.00;;;;337971;28;83560;-86
2022/02/26 00:37:40;;;;;;;;;;;5.10;99.90;5.80;100900.00;;;;338639;28;96262;-86
2022/02/26 00:37:52;;;;;;;;;;;5.10;99.90;5.70;100906.00;;;;339396;28;83352;-86
2022/02/26 00:38:04;;;;;;;;;;;5.10;99.90;5.80;100899.00;;;;337270;28;96924;-86
2022/02/26 00:38:17;;;;;;;;;;;5.10;99.90;5.80;100898.00;;;;336729;28;83218;-86
2022/02/26 00:38:29;;;;;;;;;;;5.10;99.90;5.80;100908.00;;;;334772;29;92977;-86
2022/02/26 00:38:41;;;;;;;;;;;5.10;99.90;5.70;100901.00;;;;337947;28;83449;-86
2022/02/26 00:38:54;;;;;;;;;;;5.10;99.90;5.70;100903.00;;;;335947;28;96981;-86
2022/02/26 00:39:05;;;;;;;;;;;5.10;99.90;5.70;100908.00;;;;338150;28;82446;-86
2022/02/26 00:39:17;;;;;;;;;;;5.10;99.90;5.60;100896.00;;;;338530;28;96640;-87
2022/02/26 00:39:29;;;;;;;;;;;5.10;99.90;5.70;100905.00;;;;337964;28;83438;-86
2022/02/26 00:39:41;;;;;;;;;;;5.10;99.90;5.80;100900.00;;;;338572;28;95971;-87
2022/02/26 00:39:53;;;;;;;;;;;5.10;99.90;5.80;100893.00;;;;337849;28;82697;-86
2022/02/26 00:40:06;;;;;;;;;;;5.10;99.90;5.80;100893.00;;;;335783;28;93862;-85
2022/02/26 00:40:18;;;;;;;;;;;5.10;99.90;5.70;100899.00;;;;338198;28;83475;-86
2022/02/26 00:40:30;;;;;;;;;;;5.10;99.90;5.70;100904.00;;;;337556;28;93023;-86
2022/02/26 00:40:41;;;;;;;;;;;5.10;99.90;5.70;100899.00;;;;336810;28;82461;-86
2022/02/26 00:40:53;;;;;;;;;;;5.10;99.90;5.70;100897.00;;;;338451;28;97291;-86
2022/02/26 00:41:05;;;;;;;;;;;5.10;99.90;5.60;100899.00;;;;336824;28;83297;-86
2022/02/26 00:41:17;;;;;;;;;;;5.10;99.90;5.70;100895.00;;;;335940;28;97491;-85
2022/02/26 00:41:30;;;;;;;;;;;5.10;99.90;5.70;100899.00;;;;336589;28;83495;-86
2022/02/26 00:41:42;;;;;;;;;;;5.10;99.90;5.80;100900.00;;;;336084;28;93866;-86
2022/02/26 00:41:53;;;;;;;;;;;5.10;99.90;5.60;100899.00;;;;338243;28;83321;-87
2022/02/26 00:42:05;;;;;;;;;;;5.10;99.90;5.60;100900.00;;;;338653;28;97180;-85
2022/02/26 00:42:17;;;;;;;;;;;5.10;99.90;5.60;100904.00;;;;338258;28;83341;-86
2022/02/26 00:42:30;;;;;;;;;;;5.10;99.90;5.60;100897.00;;;;337403;28;97013;-85
2022/02/26 00:42:42;;;;;;;;;;;5.10;99.90;5.60;100893.00;;;;338092;28;82543;-87
2022/02/26 00:42:53;;;;;;;;;;;5.10;99.90;5.50;100899.00;;;;335745;28;94099;-87
2022/02/26 00:43:05;;;;;;;;;;;5.10;99.90;5.50;100901.00;;;;336815;28;83487;-87
2022/02/26 00:43:17;;;;;;;;;;;5.10;99.90;5.50;100898.00;;;;337387;28;93847;-86
2022/02/26 00:43:30;;;;;;;;;;;5.10;99.90;5.50;100900.00;;;;335432;29;83231;-86
2022/02/26 00:43:42;;;;;;;;;;;5.10;99.90;5.60;100896.00;;;;336027;28;96965;-86
2022/02/26 00:43:54;;;;;;;;;;;5.10;99.90;5.60;100882.00;;;;336164;28;83603;-86
2022/02/26 00:44:06;;;;;;;;;;;5.10;99.90;5.70;100900.00;;;;336160;28;96665;-86
2022/02/26 00:44:18;;;;;;;;;;;5.10;99.90;5.70;100903.00;;;;338155;28;83257;-86
2022/02/26 00:44:31;;;;;;;;;;;5.10;99.90;5.60;100898.00;;;;336352;28;93050;-86
2022/02/26 00:44:44;;;;;;;;;;;5.10;99.90;5.60;100894.00;;;;336713;28;83571;-86
2022/02/26 00:44:55;;;;;;;;;;;5.00;99.90;5.50;100901.00;;;;338866;28;93143;-85
2022/02/26 00:45:08;;;;;;;;;;;5.10;99.90;5.50;100896.00;;;;338370;28;83360;-86
2022/02/26 00:45:20;;;;;;;;;;;5.00;99.90;5.50;100896.00;;;;334757;29;96385;-86
2022/02/26 00:45:32;;;;;;;;;;;5.00;99.90;5.50;100896.00;;;;337075;28;83172;-86
2022/02/26 00:45:43;;;;;;;;;;;5.00;99.90;5.40;100900.00;;;;337528;28;97268;-86
2022/02/26 00:45:56;;;;;;;;;;;5.00;99.90;5.40;100905.00;;;;336384;28;82686;-86
2022/02/26 00:46:07;;;;;;;;;;;5.00;99.90;5.40;100894.00;;;;336035;28;97453;-86
2022/02/26 00:46:19;;;;;;;;;;;5.00;99.90;5.40;100886.00;;;;339020;28;83352;-86
2022/02/26 00:46:32;;;;;;;;;;;5.00;99.90;5.40;100900.00;;;;336337;28;93351;-86
2022/02/26 00:46:46;;;;;;;;;;;5.00;99.90;5.40;100889.00;;;;339443;28;83443;-86
2022/02/26 00:46:58;;;;;;;;;;;5.00;99.90;5.50;100903.00;;;;334800;29;95315;-86
2022/02/26 00:47:10;;;;;;;;;;;5.00;99.90;5.60;100889.00;;;;338181;28;82477;-86
2022/02/26 00:47:22;;;;;;;;;;;5.00;99.90;5.50;100901.00;;;;336027;28;95295;-86
2022/02/26 00:47:34;;;;;;;;;;;5.00;99.90;5.50;100898.00;;;;335325;29;83488;-86
2022/02/26 00:47:46;;;;;;;;;;;5.00;99.90;5.50;100904.00;;;;336150;28;96357;-86
2022/02/26 00:47:58;;;;;;;;;;;5.00;99.90;5.40;100897.00;;;;337089;28;82534;-87
2022/02/26 00:48:09;;;;;;;;;;;5.00;99.90;5.40;100898.00;;;;336353;28;94812;-86
2022/02/26 00:49:46;;;;;;;;;;;5.00;99.90;5.40;100894.00;;;;338223;28;83401;-87
2022/02/26 00:49:49;;;;;;;;;;;5.00;99.90;5.50;100899.00;;;;335557;29;82585;-86
2022/02/26 00:50:02;;;;;;;;;;;5.00;99.90;5.60;100894.00;;;;333371;29;93907;-86
2022/02/26 00:50:17;;;;;;;;;;;5.00;99.90;5.60;100896.00;;;;335367;29;83519;-86
2022/02/26 00:50:29;;;;;;;;;;;4.90;99.90;5.70;100894.00;;;;334840;29;93556;-85
2022/02/26 00:50:40;;;;;;;;;;;5.00;99.90;5.70;100890.00;;;;334004;29;82445;-86
2022/02/26 00:50:52;;;;;;;;;;;5.00;99.90;5.70;100901.00;;;;333362;29;94708;-86
2022/02/26 00:51:04;;;;;;;;;;;5.00;99.90;5.60;100892.00;;;;332922;29;82452;-85
2022/02/26 00:51:16;;;;;;;;;;;5.00;99.90;5.60;100890.00;;;;332211;29;93975;-86
2022/02/26 00:51:27;;;;;;;;;;;5.00;99.90;5.60;100895.00;;;;334126;29;83542;-87
2022/02/26 00:51:39;;;;;;;;;;;5.00;99.90;5.50;100896.00;;;;335077;29;93043;-86
2022/02/26 00:51:51;;;;;;;;;;;5.00;99.90;5.60;100884.00;;;;334320;29;82772;-85
2022/02/26 00:52:03;;;;;;;;;;;5.00;99.90;5.60;100893.00;;;;331078;29;97465;-86
2022/02/26 00:52:23;;;;;;;;;;;5.00;99.90;5.60;100897.00;;;;335411;29;83517;-86
2022/02/26 00:52:35;;;;;;;;;;;5.00;99.90;5.60;100886.00;;;;336099;28;93063;-85
2022/02/26 00:52:47;;;;;;;;;;;5.00;99.90;5.60;100896.00;;;;333635;29;83587;-86
2022/02/26 00:52:59;;;;;;;;;;;5.00;99.90;5.60;100890.00;;;;330823;29;97347;-86
2022/02/26 00:53:11;;;;;;;;;;;5.00;99.90;5.50;100898.00;;;;332713;29;83544;-86
2022/02/26 00:53:22;;;;;;;;;;;5.00;99.90;5.50;100889.00;;;;332050;29;94355;-85
2022/02/26 00:53:34;;;;;;;;;;;5.00;99.90;5.40;100895.00;;;;334055;29;82467;-86
2022/02/26 00:53:46;;;;;;;;;;;5.00;99.90;5.40;100895.00;;;;330892;29;93560;-86
2022/02/26 00:53:58;;;;;;;;;;;5.00;99.90;5.40;100904.00;;;;332745;29;82333;-86
2022/02/26 00:54:10;;;;;;;;;;;5.00;99.90;5.50;100898.00;;;;333158;29;97068;-86
2022/02/26 00:54:21;;;;;;;;;;;5.00;99.90;5.60;100892.00;;;;333947;29;83540;-86
2022/02/26 00:54:33;;;;;;;;;;;5.00;99.90;5.60;100887.00;;;;333362;29;94200;-86
2022/02/26 00:54:45;;;;;;;;;;;4.90;99.90;5.60;100900.00;;;;333787;29;83536;-86
2022/02/26 00:54:58;;;;;;;;;;;5.00;99.90;5.50;100904.00;;;;334239;29;95734;-86
2022/02/26 00:55:10;;;;;;;;;;;5.00;99.90;5.50;100897.00;;;;333850;29;83667;-86
2022/02/26 00:55:22;;;;;;;;;;;5.00;99.90;5.50;100893.00;;;;332906;29;97301;-86
2022/02/26 00:55:34;;;;;;;;;;;5.00;99.90;5.50;100901.00;;;;336651;28;83188;-86
2022/02/26 00:55:45;;;;;;;;;;;4.90;99.90;5.50;100895.00;;;;334687;29;93911;-86
2022/02/26 00:55:57;;;;;;;;;;;4.90;99.90;5.50;100893.00;;;;333977;29;82499;-86
2022/02/26 00:56:10;;;;;;;;;;;4.90;99.90;5.40;100893.00;;;;335815;28;97615;-86
2022/02/26 00:56:21;;;;;;;;;;;4.90;99.90;5.50;100896.00;;;;334119;29;83350;-86
2022/02/26 00:56:34;;;;;;;;;;;4.90;99.90;5.50;100893.00;;;;334557;29;96861;-86
2022/02/26 00:56:46;;;;;;;;;;;4.90;99.90;5.60;100888.00;;;;335341;28;83589;-86
2022/02/26 00:56:58;;;;;;;;;;;4.90;99.90;5.60;100897.00;;;;337139;28;97283;-86
2022/02/26 00:57:10;;;;;;;;;;;4.90;99.90;5.60;100896.00;;;;336742;28;83315;-86
2022/02/26 00:57:22;;;;;;;;;;;4.90;99.90;5.60;100897.00;;;;333247;29;93048;-86
2022/02/26 00:57:34;;;;;;;;;;;4.90;99.90;5.50;100890.00;;;;335304;29;83359;-86
2022/02/26 00:57:46;;;;;;;;;;;4.90;99.90;5.50;100893.00;;;;335700;28;93359;-86
2022/02/26 00:58:00;;;;;;;;;;;4.90;99.90;5.50;100901.00;;;;334650;29;83402;-86
2022/02/26 00:58:12;;;;;;;;;;;4.90;99.90;5.40;100889.00;;;;334476;28;96539;-86
2022/02/26 00:58:23;;;;;;;;;;;4.90;99.90;5.40;100889.00;;;;336236;28;83558;-86
2022/02/26 00:58:35;;;;;;;;;;;4.90;99.90;5.40;100892.00;;;;335768;28;95405;-86
2022/02/26 00:58:48;;;;;;;;;;;4.90;99.90;5.40;100888.00;;;;335341;29;82520;-86
2022/02/26 00:58:59;;;;;;;;;;;4.90;99.90;5.40;100887.00;;;;333254;29;97622;-86
2022/02/26 00:59:11;;;;;;;;;;;4.90;99.90;5.50;100884.00;;;;332834;29;83355;-86
2022/02/26 00:59:23;;;;;;;;;;;4.90;99.90;5.50;100885.00;;;;331888;29;96745;-86
2022/02/26 00:59:35;;;;;;;;;;;4.90;99.90;5.50;100891.00;;;;335395;29;83523;-86
2022/02/26 00:59:47;;;;;;;;;;;4.90;99.90;5.60;100882.00;;;;333395;29;96616;-86
2022/02/26 00:59:58;;;;;;;;;;;4.90;99.90;5.60;100888.00;;;;334056;29;83334;-85
2022/02/26 01:00:11;;;;;;;;;;;4.90;99.90;5.60;100882.00;;;;333253;29;97961;-86
2022/02/26 01:00:23;;;;;;;;;;;4.90;99.90;5.60;100878.00;;;;334028;29;83500;-86
2022/02/26 01:00:35;;;;;;;;;;;4.90;99.90;5.60;100888.00;;;;331917;29;94270;-86
2022/02/26 01:00:48;;;;;;;;;;;4.90;99.90;5.60;100885.00;;;;333540;29;83420;-86
2022/02/26 01:01:00;;;;;;;;;;;4.90;99.90;5.60;100879.00;;;;333238;29;96025;-86
2022/02/26 01:01:12;;;;;;;;;;;4.90;99.90;5.60;100887.00;;;;336545;28;83366;-86
2022/02/26 01:01:24;;;;;;;;;;;4.90;99.90;5.60;100893.00;;;;334371;29;97693;-86
2022/02/26 01:01:37;;;;;;;;;;;4.90;99.90;5.60;100884.00;;;;335369;29;83558;-86
2022/02/26 01:01:49;;;;;;;;;;;4.90;99.90;5.70;100888.00;;;;335904;28;92940;-86
2022/02/26 01:02:01;;;;;;;;;;;4.90;99.90;5.50;100882.00;;;;334024;29;83424;-86
2022/02/26 01:02:17;;;;;;;;;;;4.90;99.90;5.50;100880.00;;;;334560;29;95109;-87